Time,TemperatureF,DewpointF,PressureIn,WindDirection,WindDirectionDegrees,WindSpeedMPH,WindSpeedGustMPH,Humidity,HourlyPrecipIn,Conditions,Clouds,dailyrainin,SoftwareType,DateUTC
2013-08-10 00:00:00,62.6,57.7,29.97,SSW,202,2.2,-999.0,84,-99.99,,,0.00,Acu-Link.com,2013-08-10 05:00:00,
2013-08-10 00:15:00,61.9,57.3,29.97,SSW,202,2.7,-999.0,85,-99.99,,,0.00,Acu-Link.com,2013-08-10 05:15:00,
2013-08-10 00:30:00,61.9,57.3,29.97,SSW,202,2.2,-999.0,85,-99.99,,,0.00,Acu-Link.com,2013-08-10 05:30:00,
2013-08-10 00:45:00,61.2,57.0,29.98,SSW,202,2.2,-999.0,86,-99.99,,,0.00,Acu-Link.com,2013-08-10 05:45:00,
2013-08-10 01:01:00,61.0,56.8,29.99,SW,225,2.2,-999.0,86,-99.99,,,0.00,Acu-Link.com,2013-08-10 06:01:00,
2013-08-10 01:16:00,60.3,56.4,29.99,SSW,202,2.7,-999.0,87,-99.99,,,0.00,Acu-Link.com,2013-08-10 06:16:00,
2013-08-10 01:31:00,60.3,56.4,29.99,SSW,202,1.7,-999.0,87,-99.99,,,0.00,Acu-Link.com,2013-08-10 06:31:00,
2013-08-10 01:47:00,60.3,56.4,29.98,SSW,202,2.2,-999.0,87,-99.99,,,0.00,Acu-Link.com,2013-08-10 06:47:00,
2013-08-10 02:02:00,59.9,55.7,29.98,SW,225,1.7,-999.0,86,-99.99,,,0.00,Acu-Link.com,2013-08-10 07:02:00,
2013-08-10 02:17:00,59.7,55.8,29.98,SW,225,2.7,-999.0,87,-99.99,,,0.00,Acu-Link.com,2013-08-10 07:17:00,
2013-08-10 02:32:00,59.4,55.5,29.99,SW,225,2.2,-999.0,87,-99.99,,,0.00,Acu-Link.com,2013-08-10 07:32:00,
2013-08-10 02:48:00,59.5,55.6,29.99,SW,225,2.2,-999.0,87,-99.99,,,0.00,Acu-Link.com,2013-08-10 07:48:00,
2013-08-10 03:03:00,58.6,55.1,30.00,SSW,202,2.2,-999.0,88,-99.99,,,0.00,Acu-Link.com,2013-08-10 08:03:00,
2013-08-10 03:18:00,58.5,55.0,29.99,SSW,202,2.2,-999.0,88,-99.99,,,0.00,Acu-Link.com,2013-08-10 08:18:00,
2013-08-10 03:34:00,58.5,55.0,29.99,South,180,0.0,-999.0,88,-99.99,,,0.00,Acu-Link.com,2013-08-10 08:34:00,
2013-08-10 03:49:00,58.5,55.0,29.99,South,180,2.2,-999.0,88,-99.99,,,0.00,Acu-Link.com,2013-08-10 08:49:00,
2013-08-10 04:04:00,58.5,55.0,29.99,South,180,0.0,-999.0,88,-99.99,,,0.00,Acu-Link.com,2013-08-10 09:04:00,
2013-08-10 04:19:00,57.6,54.1,29.99,South,180,0.0,-999.0,88,-99.99,,,0.00,Acu-Link.com,2013-08-10 09:19:00,
2013-08-10 04:34:00,57.2,54.3,29.99,South,180,2.2,-999.0,90,-99.99,,,0.00,Acu-Link.com,2013-08-10 09:34:00,
2013-08-10 04:50:00,57.2,54.6,29.99,SSW,202,1.7,-999.0,91,-99.99,,,0.00,Acu-Link.com,2013-08-10 09:50:00,
2013-08-10 05:05:00,57.0,54.4,29.99,SSW,202,0.0,-999.0,91,-99.99,,,0.00,Acu-Link.com,2013-08-10 10:05:00,
2013-08-10 05:20:00,56.8,54.2,29.99,SSW,202,1.7,-999.0,91,-99.99,,,0.00,Acu-Link.com,2013-08-10 10:20:00,
2013-08-10 05:35:00,56.5,53.9,29.99,SSW,202,2.2,-999.0,91,-99.99,,,0.00,Acu-Link.com,2013-08-10 10:35:00,
2013-08-10 05:50:00,56.5,54.2,29.98,South,180,1.7,-999.0,92,-99.99,,,0.00,Acu-Link.com,2013-08-10 10:50:00,
2013-08-10 06:06:00,56.3,54.0,29.99,South,180,0.0,-999.0,92,-99.99,,,0.00,Acu-Link.com,2013-08-10 11:06:00,
2013-08-10 06:21:00,55.9,53.6,29.99,South,180,0.0,-999.0,92,-99.99,,,0.00,Acu-Link.com,2013-08-10 11:21:00,
2013-08-10 06:36:00,56.5,54.2,29.99,South,180,0.0,-999.0,92,-99.99,,,0.00,Acu-Link.com,2013-08-10 11:36:00,
2013-08-10 06:52:00,57.0,54.7,30.00,WNW,292,0.0,-999.0,92,-99.99,,,0.00,Acu-Link.com,2013-08-10 11:52:00,
2013-08-10 07:07:00,57.0,54.7,29.99,West,270,2.2,-999.0,92,-99.99,,,0.00,Acu-Link.com,2013-08-10 12:07:00,
2013-08-10 07:22:00,59.0,56.1,30.00,West,270,0.0,-999.0,90,-99.99,,,0.00,Acu-Link.com,2013-08-10 12:22:00,
2013-08-10 07:37:00,62.4,57.8,29.99,SSE,157,0.0,-999.0,85,-99.99,,,0.00,Acu-Link.com,2013-08-10 12:37:00,
2013-08-10 07:53:00,63.9,57.6,29.99,WSW,247,1.7,-999.0,80,-99.99,,,0.00,Acu-Link.com,2013-08-10 12:53:00,
2013-08-10 08:08:00,64.9,58.2,30.00,West,270,0.0,-999.0,79,-99.99,,,0.00,Acu-Link.com,2013-08-10 13:08:00,
2013-08-10 08:23:00,67.8,59.2,30.00,SSW,202,0.0,-999.0,74,-99.99,,,0.00,Acu-Link.com,2013-08-10 13:23:00,
2013-08-10 08:39:00,71.8,60.2,30.00,ESE,112,1.7,-999.0,67,-99.99,,,0.00,Acu-Link.com,2013-08-10 13:39:00,
2013-08-10 08:54:00,73.0,61.0,30.01,ESE,112,2.7,-999.0,66,-99.99,,,0.00,Acu-Link.com,2013-08-10 13:54:00,
2013-08-10 09:09:00,73.9,60.5,30.02,ESE,112,4.2,-999.0,63,-99.99,,,0.00,Acu-Link.com,2013-08-10 14:09:00,
2013-08-10 09:24:00,70.9,59.4,30.02,ESE,112,3.2,-999.0,67,-99.99,,,0.00,Acu-Link.com,2013-08-10 14:24:00,
2013-08-10 09:39:00,72.1,59.7,30.02,SSE,157,5.8,-999.0,65,-99.99,,,0.00,Acu-Link.com,2013-08-10 14:39:00,
2013-08-10 09:55:00,73.2,61.1,30.02,SSE,157,3.7,-999.0,66,-99.99,,,0.00,Acu-Link.com,2013-08-10 14:55:00,
2013-08-10 10:10:00,74.3,61.3,30.02,South,180,4.7,-999.0,64,-99.99,,,0.00,Acu-Link.com,2013-08-10 15:10:00,
2013-08-10 10:25:00,75.6,63.0,30.02,ESE,112,4.2,-999.0,65,-99.99,,,0.00,Acu-Link.com,2013-08-10 15:25:00,
2013-08-10 10:40:00,76.1,62.1,30.02,ESE,112,4.7,-999.0,62,-99.99,,,0.00,Acu-Link.com,2013-08-10 15:40:00,
2013-08-10 10:55:00,77.2,61.3,30.03,SSE,157,6.3,-999.0,58,-99.99,,,0.00,Acu-Link.com,2013-08-10 15:55:00,
2013-08-10 11:11:00,77.5,61.5,30.03,ESE,112,6.3,-999.0,58,-99.99,,,0.00,Acu-Link.com,2013-08-10 16:11:00,
2013-08-10 11:26:00,77.9,61.9,30.03,SE,135,7.3,-999.0,58,-99.99,,,0.00,Acu-Link.com,2013-08-10 16:26:00,
2013-08-10 11:41:00,78.6,62.1,30.03,SE,135,4.7,-999.0,57,-99.99,,,0.00,Acu-Link.com,2013-08-10 16:41:00,
2013-08-10 11:56:00,79.2,63.1,30.02,ESE,112,6.3,-999.0,58,-99.99,,,0.00,Acu-Link.com,2013-08-10 16:56:00,
2013-08-10 12:12:00,79.2,63.1,30.02,SSE,157,6.8,-999.0,58,-99.99,,,0.00,Acu-Link.com,2013-08-10 17:12:00,
2013-08-10 12:27:00,80.4,63.7,30.02,SSE,157,9.4,-999.0,57,-99.99,,,0.00,Acu-Link.com,2013-08-10 17:27:00,
2013-08-10 12:42:00,80.2,64.1,30.01,SE,135,7.3,-999.0,58,-99.99,,,0.00,Acu-Link.com,2013-08-10 17:42:00,
2013-08-10 12:57:00,79.7,63.1,30.01,East,90,5.8,-999.0,57,-99.99,,,0.00,Acu-Link.com,2013-08-10 17:57:00,
2013-08-10 13:12:00,80.1,63.0,30.00,SSE,157,4.7,-999.0,56,-99.99,,,0.00,Acu-Link.com,2013-08-10 18:12:00,
2013-08-10 13:27:00,81.0,63.8,30.00,South,180,4.7,-999.0,56,-99.99,,,0.00,Acu-Link.com,2013-08-10 18:27:00,
2013-08-10 13:43:00,81.5,65.3,30.00,ESE,112,4.2,-999.0,58,-99.99,,,0.00,Acu-Link.com,2013-08-10 18:43:00,
2013-08-10 13:58:00,81.3,63.6,30.00,East,90,4.7,-999.0,55,-99.99,,,0.00,Acu-Link.com,2013-08-10 18:58:00,
2013-08-10 14:13:00,81.7,63.4,30.00,South,180,5.8,-999.0,54,-99.99,,,0.00,Acu-Link.com,2013-08-10 19:13:00,
2013-08-10 14:28:00,81.3,63.0,30.00,SSE,157,4.7,-999.0,54,-99.99,,,0.00,Acu-Link.com,2013-08-10 19:28:00,
2013-08-10 14:43:00,81.5,63.2,30.00,South,180,7.8,-999.0,54,-99.99,,,0.00,Acu-Link.com,2013-08-10 19:43:00,
2013-08-10 14:58:00,82.8,63.9,29.99,SSE,157,4.7,-999.0,53,-99.99,,,0.00,Acu-Link.com,2013-08-10 19:58:00,
2013-08-10 15:14:00,83.1,64.2,29.98,SE,135,7.8,-999.0,53,-99.99,,,0.00,Acu-Link.com,2013-08-10 20:14:00,
2013-08-10 15:29:00,83.7,64.7,29.98,SE,135,9.9,-999.0,53,-99.99,,,0.00,Acu-Link.com,2013-08-10 20:29:00,
2013-08-10 15:44:00,83.1,63.6,29.97,SSE,157,5.3,-999.0,52,-99.99,,,0.00,Acu-Link.com,2013-08-10 20:44:00,
2013-08-10 16:00:00,83.1,63.6,29.97,SE,135,7.8,-999.0,52,-99.99,,,0.00,Acu-Link.com,2013-08-10 21:00:00,
2013-08-10 16:15:00,83.1,62.5,29.96,SSW,202,7.8,-999.0,50,-99.99,,,0.00,Acu-Link.com,2013-08-10 21:15:00,
2013-08-10 16:30:00,84.0,63.9,29.96,SE,135,6.3,-999.0,51,-99.99,,,0.00,Acu-Link.com,2013-08-10 21:30:00,
2013-08-10 16:45:00,83.3,62.7,29.94,South,180,6.3,-999.0,50,-99.99,,,0.00,Acu-Link.com,2013-08-10 21:45:00,
2013-08-10 17:00:00,82.9,63.4,29.94,SE,135,6.3,-999.0,52,-99.99,,,0.00,Acu-Link.com,2013-08-10 22:00:00,
2013-08-10 17:16:00,83.3,62.7,29.94,South,180,4.7,-999.0,50,-99.99,,,0.00,Acu-Link.com,2013-08-10 22:16:00,
2013-08-10 17:31:00,83.1,63.1,29.94,SSW,202,7.3,-999.0,51,-99.99,,,0.00,Acu-Link.com,2013-08-10 22:31:00,
2013-08-10 17:46:00,82.6,62.6,29.93,SSE,157,7.8,-999.0,51,-99.99,,,0.00,Acu-Link.com,2013-08-10 22:46:00,
2013-08-10 18:01:00,82.4,63.5,29.93,South,180,6.8,-999.0,53,-99.99,,,0.00,Acu-Link.com,2013-08-10 23:01:00,
2013-08-10 18:16:00,82.0,62.6,29.93,SSE,157,4.7,-999.0,52,-99.99,,,0.00,Acu-Link.com,2013-08-10 23:16:00,
2013-08-10 18:32:00,82.2,63.3,29.93,ESE,112,7.8,-999.0,53,-99.99,,,0.00,Acu-Link.com,2013-08-10 23:32:00,
2013-08-10 18:47:00,83.8,64.3,29.93,ESE,112,1.7,-999.0,52,-99.99,,,0.00,Acu-Link.com,2013-08-10 23:47:00,
2013-08-10 19:02:00,82.9,64.0,29.92,ESE,112,3.7,-999.0,53,-99.99,,,0.00,Acu-Link.com,2013-08-11 00:02:00,
2013-08-10 19:17:00,83.3,64.4,29.93,ESE,112,3.2,-999.0,53,-99.99,,,0.00,Acu-Link.com,2013-08-11 00:17:00,
2013-08-10 19:33:00,83.1,64.7,29.92,ESE,112,1.7,-999.0,54,-99.99,,,0.00,Acu-Link.com,2013-08-11 00:33:00,
2013-08-10 19:48:00,81.7,64.5,29.92,ESE,112,1.1,-999.0,56,-99.99,,,0.00,Acu-Link.com,2013-08-11 00:48:00,
2013-08-10 20:03:00,79.0,63.4,29.92,SE,135,2.2,-999.0,59,-99.99,,,0.00,Acu-Link.com,2013-08-11 01:03:00,
2013-08-10 20:19:00,75.9,62.8,29.91,SE,135,3.2,-999.0,64,-99.99,,,0.00,Acu-Link.com,2013-08-11 01:19:00,
2013-08-10 20:34:00,73.4,62.2,29.91,SSE,157,2.7,-999.0,68,-99.99,,,0.00,Acu-Link.com,2013-08-11 01:34:00,
2013-08-10 20:49:00,71.6,61.3,29.91,SE,135,3.7,-999.0,70,-99.99,,,0.00,Acu-Link.com,2013-08-11 01:49:00,
2013-08-10 21:05:00,70.7,61.2,29.91,SE,135,2.2,-999.0,72,-99.99,,,0.00,Acu-Link.com,2013-08-11 02:05:00,
2013-08-10 21:20:00,69.4,60.4,29.92,SE,135,3.2,-999.0,73,-99.99,,,0.00,Acu-Link.com,2013-08-11 02:20:00,
2013-08-10 21:35:00,68.7,60.1,29.93,ESE,112,2.2,-999.0,74,-99.99,,,0.00,Acu-Link.com,2013-08-11 02:35:00,
2013-08-10 21:50:00,68.0,59.8,29.93,ESE,112,2.7,-999.0,75,-99.99,,,0.00,Acu-Link.com,2013-08-11 02:50:00,
2013-08-10 22:21:00,66.7,59.3,29.92,SE,135,3.7,-999.0,77,-99.99,,,0.00,Acu-Link.com,2013-08-11 03:21:00,
2013-08-10 22:36:00,66.2,59.5,29.92,South,180,5.8,-999.0,79,-99.99,,,0.00,Acu-Link.com,2013-08-11 03:36:00,
2013-08-10 22:51:00,66.7,59.3,29.92,SSE,157,5.3,-999.0,77,-99.99,,,0.00,Acu-Link.com,2013-08-11 03:51:00,
2013-08-10 23:06:00,67.5,59.7,29.92,ESE,112,4.7,-999.0,76,-99.99,,,0.00,Acu-Link.com,2013-08-11 04:06:00,
2013-08-10 23:22:00,67.1,59.6,29.92,SE,135,2.7,-999.0,77,-99.99,,,0.00,Acu-Link.com,2013-08-11 04:22:00,
2013-08-10 23:37:00,66.2,59.5,29.92,ESE,112,4.7,-999.0,79,-99.99,,,0.00,Acu-Link.com,2013-08-11 04:37:00,
2013-08-10 23:52:00,65.8,59.1,29.92,ESE,112,3.7,-999.0,79,-99.99,,,0.00,Acu-Link.com,2013-08-11 04:52:00,